MHTG - Toncontin Intl.
MHTG 050300Z 08002KT CAVOK 23/14 Q1018 A3006 NOSIG
Observed:
Wind:
visibility:
Flight Rules:
Cloud Levels:
Temperature:
Humidity:
Pressure: